Time;durP1;ratioP1;P1;durP2;ratioP2;P2;SDS_P1;SDS_P2;PMS_P1;PMS_P2;Temp;Humidity;BMP_temperature;BMP_pressure;BME280_temperature;BME280_humidity;BME280_pressure;Samples;Min_cycle;Max_cycle;Signal;HPM_P1;HPM_P2
2022/06/11 00:00:13;;;;;;;20.12;18.11;;;;;;;19.86;53.79;100772.41;454665;116;922982;-75
2022/06/11 00:01:20;;;;;;;20.36;18.36;;;;;;;19.83;53.71;100762.73;454834;116;922607;-76
2022/06/11 00:02:23;;;;;;;20.58;18.67;;;;;;;19.82;53.59;100762.98;454229;116;922576;-76
2022/06/11 00:03:26;;;;;;;20.73;18.73;;;;;;;19.79;53.35;100769.88;455114;116;922774;-75
2022/06/11 00:04:33;;;;;;;24.60;20.21;;;;;;;19.78;53.18;100775.70;454508;116;922620;-76
2022/06/11 00:05:37;;;;;;;24.59;21.69;;;;;;;19.76;53.08;100775.14;447217;118;922979;-76
2022/06/11 00:06:43;;;;;;;27.21;22.07;;;;;;;19.73;52.97;100764.62;447397;118;922524;-76
2022/06/11 00:07:46;;;;;;;31.51;22.06;;;;;;;19.73;52.85;100767.39;447184;118;923028;-75
2022/06/11 00:08:50;;;;;;;26.84;21.80;;;;;;;19.70;52.73;100768.75;447470;118;923031;-76
2022/06/11 00:09:54;;;;;;;23.21;20.77;;;;;;;19.67;52.63;100763.77;447291;118;923278;-76
2022/06/11 00:10:57;;;;;;;24.59;21.26;;;;;;;19.62;52.67;100763.75;447439;118;923311;-76
2022/06/11 00:12:00;;;;;;;31.16;22.22;;;;;;;19.59;52.75;100758.74;447340;118;923458;-76
2022/06/11 00:13:04;;;;;;;30.06;23.00;;;;;;;19.56;52.80;100760.13;447282;118;922587;-76
2022/06/11 00:14:09;;;;;;;28.75;23.96;;;;;;;19.56;52.78;100760.13;447192;118;922545;-76
2022/06/11 00:15:12;;;;;;;30.31;23.65;;;;;;;19.54;52.76;100756.80;447303;116;922543;-76
2022/06/11 00:16:18;;;;;;;32.96;25.61;;;;;;;19.52;52.73;100761.75;448040;118;930449;-76
2022/06/11 00:17:23;;;;;;;34.41;25.18;;;;;;;19.48;52.78;100752.34;447983;118;923645;-76
2022/06/11 00:18:26;;;;;;;38.48;25.27;;;;;;;19.42;52.64;100753.38;448026;118;923190;-76
2022/06/11 00:19:30;;;;;;;37.75;24.34;;;;;;;19.36;52.73;100756.38;448119;118;930444;-77
2022/06/11 00:20:33;;;;;;;38.67;24.51;;;;;;;19.29;52.87;100758.58;448125;118;923083;-76
2022/06/11 00:21:39;;;;;;;35.08;25.44;;;;;;;19.24;53.02;100756.59;448248;118;923881;-77
2022/06/11 00:22:42;;;;;;;38.52;25.70;;;;;;;19.20;53.09;100754.63;447954;118;923422;-76
2022/06/11 00:23:46;;;;;;;30.95;24.94;;;;;;;19.17;53.20;100753.25;448114;118;922537;-76
2022/06/11 00:24:49;;;;;;;37.99;25.72;;;;;;;19.13;53.34;100755.70;448092;118;923528;-76
2022/06/11 00:25:53;;;;;;;38.13;26.09;;;;;;;19.12;53.46;100748.53;448100;118;923246;-76
2022/06/11 00:26:58;;;;;;;31.63;25.66;;;;;;;19.11;53.49;100757.08;448062;118;930401;-76
2022/06/11 00:28:03;;;;;;;40.84;25.97;;;;;;;19.08;53.62;100750.14;447992;118;922618;-76
2022/06/11 00:29:06;;;;;;;30.89;25.86;;;;;;;19.09;53.75;100756.50;453735;113;922517;-76
2022/06/11 00:30:11;;;;;;;29.02;23.72;;;;;;;19.09;53.84;100750.98;449013;113;923047;-77
2022/06/11 00:31:15;;;;;;;35.59;24.57;;;;;;;19.10;54.00;100760.94;447307;118;922787;-76
2022/06/11 00:32:18;;;;;;;35.09;25.54;;;;;;;19.13;54.06;100758.46;447300;118;930532;-76
2022/06/11 00:33:21;;;;;;;32.63;25.31;;;;;;;19.16;54.20;100754.34;447374;118;922591;-76
2022/06/11 00:34:26;;;;;;;36.07;24.32;;;;;;;19.19;54.07;100762.09;447306;118;923063;-76
2022/06/11 00:35:29;;;;;;;34.32;26.24;;;;;;;19.21;54.10;100759.06;447246;118;923469;-76
2022/06/11 00:36:32;;;;;;;32.89;26.46;;;;;;;19.23;54.04;100756.88;447262;118;922862;-76
2022/06/11 00:37:35;;;;;;;31.00;26.09;;;;;;;19.24;53.93;100756.59;447386;118;930434;-76
2022/06/11 00:38:40;;;;;;;30.72;25.54;;;;;;;19.25;53.79;100766.55;447432;118;922613;-76
2022/06/11 00:39:44;;;;;;;33.80;26.04;;;;;;;19.25;53.73;100761.02;447205;116;922552;-76
2022/06/11 00:40:51;;;;;;;32.65;25.58;;;;;;;19.25;53.67;100761.02;447284;118;922928;-76
2022/06/11 00:41:58;;;;;;;30.03;24.98;;;;;;;19.25;53.61;100772.08;447243;118;923145;-76
2022/06/11 00:43:01;;;;;;;30.92;27.03;;;;;;;19.26;53.54;100773.75;447278;118;922649;-77
2022/06/11 00:44:05;;;;;;;36.92;27.59;;;;;;;19.27;53.46;100761.59;447416;118;922600;-77
2022/06/11 00:45:29;;;;;;;46.45;29.91;;;;;;;19.29;53.53;100759.41;447260;116;923106;-77
2022/06/11 00:47:05;;;;;;;43.13;33.08;;;;;;;19.30;53.41;100763.81;447301;118;922688;-75
2022/06/11 00:48:15;;;;;;;46.23;33.68;;;;;;;19.26;53.13;100765.46;447421;118;922571;-76
2022/06/11 00:49:22;;;;;;;63.66;37.33;;;;;;;19.21;53.13;100768.20;447380;118;922986;-76
2022/06/11 00:50:29;;;;;;;61.62;39.44;;;;;;;19.16;53.16;100762.64;447412;118;922920;-75
2022/06/11 00:51:32;;;;;;;63.77;42.36;;;;;;;19.10;53.14;100764.53;447350;118;923135;-78
2022/06/11 00:52:45;;;;;;;68.02;42.51;;;;;;;19.09;53.18;100762.03;447641;118;922558;-76
2022/06/11 00:54:03;;;;;;;66.78;43.54;;;;;;;19.05;53.18;100763.67;447441;118;922590;-75
2022/06/11 00:55:16;;;;;;;70.12;44.39;;;;;;;19.01;53.16;100762.55;449429;116;922611;-76
2022/06/11 00:56:26;;;;;;;66.68;43.57;;;;;;;18.96;53.21;100765.28;441544;118;922529;-76
2022/06/11 00:57:32;;;;;;;69.39;42.67;;;;;;;18.91;53.26;100763.28;440588;120;922976;-75
2022/06/11 00:58:39;;;;;;;64.07;42.25;;;;;;;18.89;53.37;100761.91;435167;122;923030;-76
2022/06/11 00:59:51;;;;;;;66.88;42.89;;;;;;;18.87;53.56;100773.21;435124;120;923037;-76
2022/06/11 01:00:57;;;;;;;71.52;44.17;;;;;;;18.88;53.59;100765.76;442399;118;923066;-76
2022/06/11 01:02:01;;;;;;;68.33;43.54;;;;;;;18.88;53.73;100768.52;442507;120;922701;-76
2022/06/11 01:03:04;;;;;;;80.54;45.60;;;;;;;18.88;53.79;100761.06;442727;120;922567;-76
2022/06/11 01:04:27;;;;;;;63.49;43.28;;;;;;;18.91;53.82;100759.72;442620;120;922692;-76
2022/06/11 01:05:34;;;;;;;66.07;44.02;;;;;;;18.92;53.88;100758.59;442255;120;930437;-76
2022/06/11 01:06:53;;;;;;;72.06;45.11;;;;;;;18.94;53.86;100759.17;442498;120;922734;-76
2022/06/11 01:08:06;;;;;;;67.74;43.91;;;;;;;18.94;53.85;100768.30;442573;120;922586;-77
2022/06/11 01:09:22;;;;;;;71.42;44.21;;;;;;;18.95;53.84;100760.84;441786;120;922965;-76
2022/06/11 01:10:45;;;;;;;65.17;43.25;;;;;;;18.96;53.96;100756.98;442496;118;922891;-76
2022/06/11 01:12:16;;;;;;;65.38;44.19;;;;;;;18.97;53.88;100758.63;442521;120;923102;-76
2022/06/11 01:13:40;;;;;;;62.68;43.03;;;;;;;18.97;53.88;100761.39;442074;120;922577;-76
2022/06/11 01:14:50;;;;;;;67.13;44.18;;;;;;;18.97;53.96;100766.92;442441;118;930650;-76
2022/06/11 01:15:56;;;;;;;69.46;44.25;;;;;;;18.97;54.00;100764.16;441011;120;922513;-76
2022/06/11 01:17:03;;;;;;;71.48;44.04;;;;;;;18.97;53.97;100761.39;448218;118;923100;-76
2022/06/11 01:18:15;;;;;;;62.57;43.56;;;;;;;18.96;53.92;100763.35;448164;118;923063;-75
2022/06/11 01:19:51;;;;;;;67.79;43.46;;;;;;;18.96;53.84;100766.11;448260;118;922559;-75
2022/06/11 01:21:17;;;;;;;68.26;42.21;;;;;;;18.93;53.79;100763.86;448271;118;922965;-76
2022/06/11 01:22:54;;;;;;;64.49;41.93;;;;;;;18.89;53.82;100759.98;448284;118;923191;-76
2022/06/11 01:24:22;;;;;;;59.22;41.22;;;;;;;18.86;53.88;100765.17;448238;118;923079;-76
2022/06/11 01:25:54;;;;;;;57.31;38.34;;;;;;;18.83;54.02;100769.32;448243;118;923423;-76
2022/06/11 01:27:04;;;;;;;59.62;38.18;;;;;;;18.82;54.20;100769.58;440569;120;923117;-76
2022/06/11 01:28:16;;;;;;;59.67;39.21;;;;;;;18.81;54.42;100767.91;439404;118;922684;-76
2022/06/11 01:29:42;;;;;;;60.21;36.29;;;;;;;18.82;54.52;100770.41;444271;118;922765;-76
2022/06/11 01:30:52;;;;;;;49.22;33.40;;;;;;;18.84;54.57;100781.20;443354;119;923128;-76
2022/06/11 01:31:58;;;;;;;45.80;32.93;;;;;;;18.82;54.58;100766.81;443166;119;923036;-76
2022/06/11 01:33:17;;;;;;;47.11;34.74;;;;;;;18.80;54.69;100772.59;443387;119;922865;-76
2022/06/11 01:34:39;;;;;;;40.96;31.73;;;;;;;18.80;54.82;100769.83;440553;120;922919;-76
2022/06/11 01:35:46;;;;;;;37.99;28.93;;;;;;;18.81;54.90;100784.48;442459;120;923058;-76
2022/06/11 01:36:53;;;;;;;34.66;26.61;;;;;;;18.80;54.88;100782.84;442516;120;922689;-76
2022/06/11 01:38:08;;;;;;;31.49;24.73;;;;;;;18.77;54.85;100780.59;442560;120;922711;-76
2022/06/11 01:39:15;;;;;;;28.73;23.33;;;;;;;18.74;54.80;100782.77;441910;120;922586;-76
2022/06/11 01:40:29;;;;;;;36.46;25.92;;;;;;;18.71;54.76;100783.31;442239;118;922484;-76
2022/06/11 01:41:38;;;;;;;29.25;23.73;;;;;;;18.69;54.73;100774.45;434966;122;923253;-76
2022/06/11 01:42:50;;;;;;;27.18;23.84;;;;;;;18.66;54.86;100780.51;447285;118;922533;-76
2022/06/11 01:43:57;;;;;;;36.13;22.50;;;;;;;18.63;54.94;100783.81;448133;118;923106;-76
2022/06/11 01:45:13;;;;;;;29.46;22.87;;;;;;;18.63;54.99;100781.05;435060;122;922551;-77
2022/06/11 01:46:20;;;;;;;32.61;22.81;;;;;;;18.63;54.94;100770.00;435174;122;922585;-77
2022/06/11 01:47:23;;;;;;;24.07;21.49;;;;;;;18.62;54.94;100770.26;435135;122;922851;-77
2022/06/11 01:48:29;;;;;;;24.94;22.20;;;;;;;18.61;54.98;100771.34;435298;122;922495;-77
2022/06/11 01:49:35;;;;;;;31.27;23.62;;;;;;;18.60;55.02;100776.03;435195;120;922529;-77
2022/06/11 01:50:42;;;;;;;25.91;22.34;;;;;;;18.62;55.11;100776.62;435272;120;922902;-77
2022/06/11 01:52:12;;;;;;;25.98;22.31;;;;;;;18.64;55.23;100779.09;435162;122;922593;-76
2022/06/11 01:53:19;;;;;;;27.29;21.88;;;;;;;18.66;55.27;100774.98;435061;122;922776;-76
2022/06/11 01:54:53;;;;;;;27.06;22.84;;;;;;;18.69;55.28;100777.20;435961;121;930316;-76
2022/06/11 01:55:59;;;;;;;30.76;23.56;;;;;;;18.71;55.29;100782.48;446236;119;922604;-77
2022/06/11 01:57:24;;;;;;;31.37;21.82;;;;;;;18.71;55.25;100776.95;446508;118;922724;-77
2022/06/11 01:58:48;;;;;;;31.22;22.81;;;;;;;18.70;55.26;100780.80;447703;118;922915;-77
2022/06/11 02:00:10;;;;;;;24.14;21.58;;;;;;;18.69;55.34;100779.13;447879;116;922506;-76
2022/06/11 02:01:36;;;;;;;26.74;22.64;;;;;;;18.66;55.32;100786.03;448212;118;923240;-77
2022/06/11 02:03:00;;;;;;;30.33;21.99;;;;;;;18.66;55.48;100788.80;448221;118;923017;-77
2022/06/11 02:04:35;;;;;;;27.37;21.64;;;;;;;18.67;55.58;100787.70;448117;118;923080;-77
2022/06/11 02:06:08;;;;;;;27.34;21.84;;;;;;;18.67;55.67;100787.70;446744;118;923210;-76
2022/06/11 02:07:29;;;;;;;28.86;21.24;;;;;;;18.68;55.68;100788.54;448164;118;923090;-76
2022/06/11 02:08:52;;;;;;;29.62;22.69;;;;;;;18.67;55.77;100784.95;439939;120;923156;-76
2022/06/11 02:10:18;;;;;;;26.22;22.05;;;;;;;18.66;55.83;100786.03;442666;118;923272;-76
2022/06/11 02:11:37;;;;;;;28.44;21.98;;;;;;;18.68;55.94;100794.06;448596;116;923014;-76
2022/06/11 02:12:53;;;;;;;32.08;24.84;;;;;;;18.70;55.96;100798.22;457174;116;922905;-76
2022/06/11 02:14:05;;;;;;;38.98;30.20;;;;;;;18.72;55.91;100800.72;457187;116;923067;-75
2022/06/11 02:15:18;;;;;;;35.21;26.15;;;;;;;18.71;55.82;100788.84;457190;114;922964;-76
2022/06/11 02:16:37;;;;;;;41.03;28.64;;;;;;;18.72;55.79;100792.44;448116;118;922459;-76
2022/06/11 02:17:44;;;;;;;52.54;35.05;;;;;;;18.72;55.74;100800.72;448150;118;923095;-77
2022/06/11 02:18:50;;;;;;;52.67;37.14;;;;;;;18.72;55.71;100797.95;448144;118;922691;-77
2022/06/11 02:20:18;;;;;;;57.28;37.78;;;;;;;18.73;55.63;100794.11;448105;116;922522;-76
2022/06/11 02:21:28;;;;;;;52.71;36.58;;;;;;;18.74;55.53;100791.05;448129;118;922615;-77
2022/06/11 02:22:50;;;;;;;49.98;35.89;;;;;;;18.74;55.43;100788.30;448068;118;922964;-75
2022/06/11 02:24:00;;;;;;;47.18;33.56;;;;;;;18.75;55.38;100784.44;448123;118;922549;-76
2022/06/11 02:25:12;;;;;;;53.49;35.95;;;;;;;18.74;55.39;100782.77;448370;116;923049;-76
2022/06/11 02:26:19;;;;;;;51.01;34.27;;;;;;;18.72;55.33;100782.22;448071;118;922532;-76
2022/06/11 02:27:26;;;;;;;47.22;34.18;;;;;;;18.71;55.34;100782.48;447804;118;923080;-77
2022/06/11 02:28:32;;;;;;;46.11;33.69;;;;;;;18.70;55.38;100789.92;448212;118;923147;-76
2022/06/11 02:29:36;;;;;;;38.74;30.99;;;;;;;18.70;55.46;100789.09;441476;116;923126;-77
2022/06/11 02:30:42;;;;;;;39.35;31.06;;;;;;;18.70;55.44;100780.80;436544;121;923017;-77
2022/06/11 02:31:52;;;;;;;43.56;33.03;;;;;;;18.68;55.38;100783.02;436452;121;922666;-78
2022/06/11 02:33:03;;;;;;;40.49;31.24;;;;;;;18.78;55.41;100779.50;476888;110;947006;-76
2022/06/11 02:34:08;;;;;;;50.51;33.31;;;;;;;18.66;55.54;100785.20;465350;113;922555;-76
2022/06/11 02:35:15;;;;;;;42.34;32.76;;;;;;;18.67;55.70;100793.23;459203;114;922607;-76
2022/06/11 02:36:26;;;;;;;49.21;33.31;;;;;;;18.71;55.94;100788.00;456365;115;930305;-76
2022/06/11 02:37:39;;;;;;;45.59;32.32;;;;;;;18.72;55.85;100787.75;457169;116;923040;-76
2022/06/11 02:38:42;;;;;;;47.11;32.72;;;;;;;18.75;55.88;100795.49;457232;116;923106;-76
2022/06/11 02:39:46;;;;;;;42.90;31.37;;;;;;;18.78;55.89;100798.84;457957;114;922539;-76
2022/06/11 02:41:01;;;;;;;52.74;33.80;;;;;;;18.79;55.85;100803.27;458368;115;922231;-76
2022/06/11 02:42:08;;;;;;;56.67;34.93;;;;;;;18.80;55.84;100794.70;457619;115;930432;-77
2022/06/11 02:43:11;;;;;;;52.15;34.03;;;;;;;18.79;55.73;100806.03;458269;116;922890;-77
2022/06/11 02:44:15;;;;;;;49.26;34.37;;;;;;;18.78;55.64;100802.44;458451;115;922272;-77
2022/06/11 02:45:19;;;;;;;56.31;34.77;;;;;;;18.78;55.65;100801.59;458420;114;922675;-77
2022/06/11 02:47:46;;;;;;;51.99;33.67;;;;;;;18.80;55.75;100796.66;458243;116;922208;-77
2022/06/11 02:48:51;;;;;;;52.37;33.73;;;;;;;18.82;55.82;100802.73;458209;116;922240;-77
2022/06/11 02:49:54;;;;;;;48.73;33.61;;;;;;;18.84;55.82;100795.86;458223;116;922642;-77
2022/06/11 02:50:57;;;;;;;55.54;35.86;;;;;;;18.87;55.87;100791.72;458395;115;922375;-77
2022/06/11 02:52:04;;;;;;;54.21;36.99;;;;;;;18.90;55.89;100800.33;458416;116;922298;-77
2022/06/11 02:53:09;;;;;;;52.67;35.18;;;;;;;18.93;55.83;100793.42;458260;116;922245;-77
2022/06/11 02:54:14;;;;;;;56.48;37.13;;;;;;;18.95;55.79;100794.00;451098;116;922354;-77
2022/06/11 02:55:18;;;;;;;48.00;35.06;;;;;;;18.97;55.78;100791.78;456682;116;922633;-76
2022/06/11 02:56:22;;;;;;;48.13;33.41;;;;;;;18.99;55.70;100789.61;456724;116;922200;-76
2022/06/11 02:57:29;;;;;;;44.78;31.54;;;;;;;19.00;55.62;100791.27;456844;116;922621;-76
2022/06/11 02:58:32;;;;;;;40.72;30.72;;;;;;;19.01;55.54;100802.08;456645;116;922275;-76
2022/06/11 02:59:35;;;;;;;47.32;31.60;;;;;;;19.02;55.54;100800.14;456782;116;922219;-76
2022/06/11 03:00:42;;;;;;;44.83;29.54;;;;;;;19.02;55.60;100800.14;456822;116;922200;-76
2022/06/11 03:01:45;;;;;;;35.57;26.77;;;;;;;19.05;55.63;100796.84;456576;116;922203;-76
2022/06/11 03:02:49;;;;;;;30.44;23.44;;;;;;;19.07;55.60;100795.48;456800;116;922292;-77
2022/06/11 03:03:53;;;;;;;29.17;23.65;;;;;;;19.09;55.55;100800.73;456719;116;922615;-77
2022/06/11 03:04:56;;;;;;;27.57;22.98;;;;;;;19.11;55.17;100801.30;456726;116;922262;-76
2022/06/11 03:06:00;;;;;;;35.58;25.57;;;;;;;19.11;55.17;100801.30;456810;116;922793;-77
2022/06/11 03:07:04;;;;;;;33.13;24.32;;;;;;;19.13;55.48;100805.45;456832;116;922259;-77
2022/06/11 03:08:08;;;;;;;33.15;22.84;;;;;;;19.15;55.56;100794.97;457545;116;922234;-76
2022/06/11 03:09:15;;;;;;;31.57;22.87;;;;;;;19.18;55.59;100794.42;458467;116;922701;-77
2022/06/11 03:10:20;;;;;;;27.37;22.31;;;;;;;19.22;55.59;100796.67;458338;114;922752;-77
2022/06/11 03:11:24;;;;;;;28.28;22.12;;;;;;;19.24;55.48;100795.30;458359;116;922185;-77
2022/06/11 03:12:27;;;;;;;27.22;23.06;;;;;;;19.27;55.33;100796.70;458507;115;922149;-77
2022/06/11 03:13:30;;;;;;;28.71;21.41;;;;;;;19.26;55.33;100795.88;458525;116;922069;-76
2022/06/11 03:14:34;;;;;;;27.89;23.23;;;;;;;19.27;55.25;100800.30;458514;116;922134;-76
2022/06/11 03:15:37;;;;;;;28.76;22.12;;;;;;;19.28;55.15;100798.38;459835;115;922700;-77
2022/06/11 03:16:40;;;;;;;28.36;21.96;;;;;;;19.28;55.15;100792.84;462382;115;922493;-77
2022/06/11 03:17:46;;;;;;;29.17;22.57;;;;;;;19.29;55.28;100794.52;462199;115;923100;-77
2022/06/11 03:18:49;;;;;;;24.55;21.92;;;;;;;19.31;55.18;100797.83;462037;115;922193;-77
2022/06/11 03:19:52;;;;;;;25.65;22.87;;;;;;;19.31;55.28;100800.59;462279;115;922750;-77
2022/06/11 03:20:56;;;;;;;34.30;24.02;;;;;;;19.34;55.27;100800.08;462270;115;922162;-76
2022/06/11 03:21:59;;;;;;;30.66;24.01;;;;;;;19.36;55.25;100806.15;462273;115;922339;-78
2022/06/11 03:23:02;;;;;;;32.23;25.01;;;;;;;19.39;55.21;100800.10;462316;115;922370;-77
2022/06/11 03:24:06;;;;;;;33.55;27.38;;;;;;;19.40;55.15;100801.78;462356;115;922623;-77
2022/06/11 03:25:10;;;;;;;33.78;24.72;;;;;;;19.43;55.04;100803.98;462200;115;922308;-77
2022/06/11 03:26:13;;;;;;;33.72;25.77;;;;;;;19.45;54.93;100804.59;462295;115;922724;-77
2022/06/11 03:27:17;;;;;;;37.61;26.85;;;;;;;19.48;54.99;100807.65;458922;114;922283;-77
2022/06/11 03:28:24;;;;;;;34.25;26.89;;;;;;;19.51;54.88;100806.30;458342;116;922300;-77
2022/06/11 03:29:27;;;;;;;33.26;26.43;;;;;;;19.52;54.56;100807.94;457561;113;923346;-76
2022/06/11 03:30:30;;;;;;;45.29;30.68;;;;;;;19.52;54.51;100805.17;457690;116;922470;-77
2022/06/11 03:31:33;;;;;;;41.07;31.86;;;;;;;19.54;54.47;100814.04;457713;116;922544;-77
2022/06/11 03:32:36;;;;;;;56.10;35.69;;;;;;;19.55;54.39;100805.48;457562;114;922506;-75
2022/06/11 03:33:40;;;;;;;48.31;34.19;;;;;;;19.58;54.38;100801.33;457757;116;922563;-77
2022/06/11 03:34:43;;;;;;;48.79;34.40;;;;;;;19.59;54.28;100811.30;457581;114;923013;-76
2022/06/11 03:35:49;;;;;;;49.17;34.51;;;;;;;19.60;54.28;100810.20;457578;116;923051;-77
2022/06/11 03:36:53;;;;;;;51.24;34.67;;;;;;;19.61;54.32;100811.88;457337;115;922348;-77
2022/06/11 03:37:56;;;;;;;59.16;36.79;;;;;;;19.61;54.26;100814.64;457352;116;922491;-77
2022/06/11 03:39:00;;;;;;;59.64;38.43;;;;;;;19.63;54.25;100801.35;457507;116;930389;-77
2022/06/11 03:40:04;;;;;;;58.05;40.49;;;;;;;19.66;54.29;100806.36;457454;114;922995;-77
2022/06/11 03:41:07;;;;;;;68.23;43.61;;;;;;;19.68;54.34;100808.88;457533;116;923056;-77
2022/06/11 03:42:11;;;;;;;84.92;51.48;;;;;;;19.69;54.40;100808.58;457555;116;923189;-76
2022/06/11 03:43:14;;;;;;;82.21;53.67;;;;;;;19.70;54.46;100801.95;457457;114;922772;-76
2022/06/11 03:44:17;;;;;;;86.86;55.63;;;;;;;19.74;54.55;100797.53;457420;115;922367;-75
2022/06/11 03:45:21;;;;;;;74.51;49.80;;;;;;;19.76;54.56;100808.34;457294;113;922456;-76
2022/06/11 03:46:24;;;;;;;75.85;51.83;;;;;;;19.78;54.50;100806.14;447801;118;922571;-76
2022/06/11 03:47:27;;;;;;;76.33;50.42;;;;;;;19.80;54.49;100803.92;448246;116;923116;-75
2022/06/11 03:48:31;;;;;;;85.36;49.20;;;;;;;19.81;54.46;100797.29;457134;116;923154;-77
2022/06/11 03:49:34;;;;;;;77.79;48.99;;;;;;;19.83;54.47;100801.47;457166;116;922512;-77
2022/06/11 03:50:39;;;;;;;85.92;55.32;;;;;;;19.87;54.46;100798.98;457333;116;922543;-77
2022/06/11 03:51:43;;;;;;;97.79;61.10;;;;;;;19.88;54.48;100801.48;457175;116;930625;-77
2022/06/11 03:52:46;;;;;;;109.51;69.38;;;;;;;19.89;54.49;100794.84;457289;116;922948;-76
2022/06/11 03:53:50;;;;;;;111.94;69.47;;;;;;;19.90;54.41;100798.45;457443;116;923130;-77
2022/06/11 03:54:55;;;;;;;135.47;86.73;;;;;;;19.92;54.40;100801.76;455737;116;922487;-77
2022/06/11 03:55:58;;;;;;;151.46;99.31;;;;;;;19.93;54.37;100804.27;455017;116;930433;-77
2022/06/11 03:57:01;;;;;;;173.01;104.20;;;;;;;19.96;54.29;100802.87;455171;116;923062;-77
2022/06/11 03:58:06;;;;;;;167.86;108.78;;;;;;;19.97;54.30;100802.61;455182;116;922887;-77
2022/06/11 03:59:10;;;;;;;202.87;127.20;;;;;;;20.00;54.05;100804.02;455062;116;922489;-76
2022/06/11 04:01:14;;;;;;;208.16;135.08;;;;;;;20.02;53.87;100799.02;454962;116;922825;-76
2022/06/11 04:01:23;;;;;;;208.33;134.13;;;;;;;20.04;53.64;100799.59;452132;116;922617;-76
2022/06/11 04:02:26;;;;;;;217.43;137.41;;;;;;;20.07;53.47;100798.23;455019;116;923037;-75
2022/06/11 04:03:30;;;;;;;210.63;135.25;;;;;;;20.07;53.39;100796.27;455218;116;922625;-76
2022/06/11 04:04:33;;;;;;;210.46;136.31;;;;;;;20.10;53.22;100798.52;455241;116;923045;-76
2022/06/11 04:05:38;;;;;;;217.89;138.76;;;;;;;20.13;53.10;100800.72;455135;116;922992;-76
2022/06/11 04:06:45;;;;;;;215.02;135.21;;;;;;;20.15;53.00;100798.52;454958;116;922998;-76
2022/06/11 04:07:48;;;;;;;220.49;133.63;;;;;;;20.17;52.78;100790.78;453601;116;922989;-76
2022/06/11 04:08:52;;;;;;;209.07;132.01;;;;;;;20.19;52.54;100799.63;449340;118;923077;-76
2022/06/11 04:09:55;;;;;;;213.52;133.67;;;;;;;20.21;52.41;100802.13;449283;116;922607;-77
2022/06/11 04:10:59;;;;;;;208.57;132.80;;;;;;;20.21;52.44;100797.43;449220;118;922834;-76
2022/06/11 04:12:04;;;;;;;201.44;128.85;;;;;;;20.23;52.36;100799.94;449210;118;922740;-76
2022/06/11 04:13:08;;;;;;;213.04;134.31;;;;;;;20.23;52.35;100797.97;449083;118;923169;-76
2022/06/11 04:14:12;;;;;;;207.80;133.54;;;;;;;20.24;52.40;100799.64;449150;117;922578;-76
2022/06/11 04:15:15;;;;;;;213.37;137.49;;;;;;;20.26;52.45;100797.44;449298;116;930575;-76
2022/06/11 04:16:28;;;;;;;216.70;137.52;;;;;;;20.29;52.55;100798.81;445560;119;922613;-76
2022/06/11 04:17:33;;;;;;;213.60;136.93;;;;;;;20.32;52.64;100801.09;453063;117;922623;-77
2022/06/11 04:18:39;;;;;;;212.62;137.02;;;;;;;20.34;52.63;100791.38;453967;116;922898;-76
2022/06/11 04:19:45;;;;;;;219.06;136.52;;;;;;;20.37;52.58;100803.86;453842;117;922763;-78
2022/06/11 04:20:48;;;;;;;220.74;138.74;;;;;;;20.39;52.55;100790.58;445383;119;923169;-76
2022/06/11 04:21:53;;;;;;;214.87;137.97;;;;;;;20.40;52.62;100790.28;454025;117;923079;-76
2022/06/11 04:22:56;;;;;;;206.98;137.35;;;;;;;20.44;52.68;100796.13;453866;116;923490;-76
2022/06/11 04:24:01;;;;;;;217.82;139.89;;;;;;;20.45;52.67;100803.34;454016;116;922643;-76
2022/06/11 04:25:05;;;;;;;220.58;139.35;;;;;;;20.49;52.67;100792.53;445353;119;923387;-77
2022/06/11 04:26:12;;;;;;;219.61;139.92;;;;;;;20.51;52.68;100796.67;453848;117;930541;-77
2022/06/11 04:27:18;;;;;;;225.89;142.92;;;;;;;20.54;52.70;100796.14;445383;119;923104;-77
2022/06/11 04:28:21;;;;;;;228.37;149.16;;;;;;;20.56;52.69;100798.64;453829;117;922560;-77
2022/06/11 04:29:28;;;;;;;226.97;143.69;;;;;;;20.59;52.53;100798.07;455960;113;923101;-77
2022/06/11 04:30:31;;;;;;;244.76;148.63;;;;;;;20.61;52.32;100802.24;457004;116;922556;-75
2022/06/11 04:31:35;;;;;;;228.66;145.76;;;;;;;20.66;52.14;100799.47;457262;116;922907;-76
2022/06/11 04:32:40;;;;;;;224.41;144.57;;;;;;;20.69;52.01;100790.59;456477;115;922641;-76
2022/06/11 04:33:45;;;;;;;240.31;150.12;;;;;;;20.73;51.73;100799.20;457232;115;922586;-76
2022/06/11 04:34:48;;;;;;;233.34;147.63;;;;;;;20.75;51.60;100802.52;457187;114;922735;-76
2022/06/11 04:35:52;;;;;;;231.71;149.46;;;;;;;20.75;51.40;100800.58;457238;116;924149;-76
2022/06/11 04:36:56;;;;;;;223.60;147.16;;;;;;;20.76;51.30;100806.95;457348;115;923054;-76
2022/06/11 04:37:59;;;;;;;223.18;145.66;;;;;;;20.77;51.20;100798.38;457307;116;923087;-76
2022/06/11 04:39:04;;;;;;;238.05;150.84;;;;;;;20.81;51.03;100798.64;457304;115;923062;-76
2022/06/11 04:40:09;;;;;;;230.26;148.48;;;;;;;20.81;51.03;100798.64;457164;114;922600;-76
2022/06/11 04:41:12;;;;;;;235.89;150.29;;;;;;;20.83;51.07;100796.43;457297;115;922976;-76
2022/06/11 04:42:17;;;;;;;255.72;155.27;;;;;;;20.87;51.08;100799.47;457302;115;922936;-76
2022/06/11 04:43:21;;;;;;;254.95;159.68;;;;;;;20.89;51.13;100798.09;457272;116;923095;-77
2022/06/11 04:44:24;;;;;;;259.92;160.61;;;;;;;20.91;51.25;100795.86;457277;115;922814;-77
2022/06/11 04:45:27;;;;;;;242.59;157.85;;;;;;;20.93;51.30;100793.65;457399;116;923057;-77
2022/06/11 04:46:31;;;;;;;242.33;157.82;;;;;;;20.97;51.30;100799.45;451045;116;923107;-77
2022/06/11 04:47:34;;;;;;;247.07;160.57;;;;;;;20.98;51.32;100799.19;449508;118;922570;-77
2022/06/11 04:48:37;;;;;;;253.96;162.92;;;;;;;21.01;51.32;100795.84;449473;117;930752;-77
2022/06/11 04:49:40;;;;;;;253.83;163.36;;;;;;;21.02;51.39;100799.45;449459;116;923061;-77
2022/06/11 04:50:44;;;;;;;249.56;160.36;;;;;;;21.05;51.37;100799.74;449595;117;922616;-77
2022/06/11 04:51:47;;;;;;;260.09;165.90;;;;;;;21.07;51.41;100803.05;449583;118;922640;-76
2022/06/11 04:52:50;;;;;;;251.13;161.33;;;;;;;21.10;51.33;100801.67;449481;118;922629;-77
2022/06/11 04:53:53;;;;;;;252.82;163.31;;;;;;;21.14;51.31;100800.00;449575;117;923065;-77
2022/06/11 04:54:56;;;;;;;258.68;164.45;;;;;;;21.18;51.28;100801.12;454370;116;922686;-77
2022/06/11 04:55:59;;;;;;;247.17;159.48;;;;;;;21.20;51.23;100801.69;455779;116;922679;-76
2022/06/11 04:57:03;;;;;;;243.11;158.03;;;;;;;21.23;51.05;100803.89;455838;116;922751;-76
2022/06/11 04:58:07;;;;;;;242.40;158.38;;;;;;;21.26;50.98;100791.42;455682;116;922514;-76
2022/06/11 04:59:10;;;;;;;249.53;159.47;;;;;;;21.29;50.91;100796.39;455636;116;930665;-76
2022/06/11 05:00:20;;;;;;;240.56;154.93;;;;;;;21.31;50.76;100794.17;455297;116;923208;-77
2022/06/11 05:01:24;;;;;;;235.94;155.81;;;;;;;21.32;50.78;100798.62;455599;116;922877;-76
2022/06/11 05:02:27;;;;;;;239.16;157.81;;;;;;;21.34;50.67;100796.37;455724;116;922537;-76
2022/06/11 05:03:30;;;;;;;238.99;153.52;;;;;;;21.36;50.75;100795.00;455607;116;930432;-76